sensor_id;sensor_type;location;lat;lon;timestamp;pressure;altitude;pressure_sealevel;temperature
24639;BMP180;1641;51.306;12.384;2023-02-15T00:01:14;101572.00;;;4.70
24639;BMP180;1641;51.306;12.384;2023-02-15T00:03:39;101574.00;;;4.50
24639;BMP180;1641;51.306;12.384;2023-02-15T00:06:05;101522.00;;;4.40
24639;BMP180;1641;51.306;12.384;2023-02-15T00:08:31;101569.00;;;4.60
24639;BMP180;1641;51.306;12.384;2023-02-15T00:11:07;101571.00;;;4.40
24639;BMP180;1641;51.306;12.384;2023-02-15T00:13:34;101556.00;;;4.50
24639;BMP180;1641;51.306;12.384;2023-02-15T00:16:07;101577.00;;;4.60
24639;BMP180;1641;51.306;12.384;2023-02-15T00:18:33;101560.00;;;4.70
24639;BMP180;1641;51.306;12.384;2023-02-15T00:21:02;101564.00;;;4.60
24639;BMP180;1641;51.306;12.384;2023-02-15T00:23:28;101527.00;;;4.50
24639;BMP180;1641;51.306;12.384;2023-02-15T00:26:08;101551.00;;;4.50
24639;BMP180;1641;51.306;12.384;2023-02-15T00:28:33;101552.00;;;4.50
24639;BMP180;1641;51.306;12.384;2023-02-15T00:31:17;101546.00;;;4.40
24639;BMP180;1641;51.306;12.384;2023-02-15T00:33:42;101546.00;;;4.30
24639;BMP180;1641;51.306;12.384;2023-02-15T00:36:09;101543.00;;;4.30
24639;BMP180;1641;51.306;12.384;2023-02-15T00:38:36;101549.00;;;4.50
24639;BMP180;1641;51.306;12.384;2023-02-15T00:41:04;101542.00;;;4.50
24639;BMP180;1641;51.306;12.384;2023-02-15T00:43:31;101538.00;;;4.30
24639;BMP180;1641;51.306;12.384;2023-02-15T00:45:57;101538.00;;;4.20
24639;BMP180;1641;51.306;12.384;2023-02-15T00:48:22;101530.00;;;4.30
24639;BMP180;1641;51.306;12.384;2023-02-15T00:50:56;101536.00;;;4.20
24639;BMP180;1641;51.306;12.384;2023-02-15T00:53:22;101515.00;;;4.40
24639;BMP180;1641;51.306;12.384;2023-02-15T00:55:48;101532.00;;;4.30
24639;BMP180;1641;51.306;12.384;2023-02-15T00:58:14;101541.00;;;4.20
24639;BMP180;1641;51.306;12.384;2023-02-15T01:00:41;101535.00;;;4.20
24639;BMP180;1641;51.306;12.384;2023-02-15T01:03:07;101524.00;;;4.10
24639;BMP180;1641;51.306;12.384;2023-02-15T01:05:33;101525.00;;;4.00
24639;BMP180;1641;51.306;12.384;2023-02-15T01:07:59;101539.00;;;4.00
24639;BMP180;1641;51.306;12.384;2023-02-15T01:10:25;101534.00;;;4.10
24639;BMP180;1641;51.306;12.384;2023-02-15T01:12:52;101538.00;;;3.90
24639;BMP180;1641;51.306;12.384;2023-02-15T01:15:18;101533.00;;;4.20
24639;BMP180;1641;51.306;12.384;2023-02-15T01:17:44;101531.00;;;4.30
24639;BMP180;1641;51.306;12.384;2023-02-15T01:20:14;101530.00;;;4.30
24639;BMP180;1641;51.306;12.384;2023-02-15T01:22:41;101530.00;;;4.40
24639;BMP180;1641;51.306;12.384;2023-02-15T01:25:06;101525.00;;;4.40
24639;BMP180;1641;51.306;12.384;2023-02-15T01:27:31;101527.00;;;4.20
24639;BMP180;1641;51.306;12.384;2023-02-15T01:29:57;101514.00;;;4.20
24639;BMP180;1641;51.306;12.384;2023-02-15T01:32:23;101531.00;;;4.20
24639;BMP180;1641;51.306;12.384;2023-02-15T01:34:48;101522.00;;;4.30
24639;BMP180;1641;51.306;12.384;2023-02-15T01:37:13;101525.00;;;4.20
24639;BMP180;1641;51.306;12.384;2023-02-15T01:39:40;101513.00;;;4.20
24639;BMP180;1641;51.306;12.384;2023-02-15T01:42:05;101515.00;;;4.00
24639;BMP180;1641;51.306;12.384;2023-02-15T01:44:53;101507.00;;;4.00
24639;BMP180;1641;51.306;12.384;2023-02-15T01:47:35;101499.00;;;4.00
24639;BMP180;1641;51.306;12.384;2023-02-15T01:50:09;101503.00;;;4.10
24639;BMP180;1641;51.306;12.384;2023-02-15T01:52:41;101494.00;;;4.00
24639;BMP180;1641;51.306;12.384;2023-02-15T01:55:08;101493.00;;;4.00
24639;BMP180;1641;51.306;12.384;2023-02-15T01:57:34;101499.00;;;4.10
24639;BMP180;1641;51.306;12.384;2023-02-15T02:00:02;101488.00;;;4.10
24639;BMP180;1641;51.306;12.384;2023-02-15T02:02:28;101492.00;;;4.10
24639;BMP180;1641;51.306;12.384;2023-02-15T02:05:04;101475.00;;;4.00
24639;BMP180;1641;51.306;12.384;2023-02-15T02:07:38;101481.00;;;3.80
24639;BMP180;1641;51.306;12.384;2023-02-15T02:10:06;101459.00;;;3.90
24639;BMP180;1641;51.306;12.384;2023-02-15T02:12:32;101473.00;;;4.00
24639;BMP180;1641;51.306;12.384;2023-02-15T02:14:57;101476.00;;;4.10
24639;BMP180;1641;51.306;12.384;2023-02-15T02:17:42;101489.00;;;3.90
24639;BMP180;1641;51.306;12.384;2023-02-15T02:20:28;101479.00;;;4.00
24639;BMP180;1641;51.306;12.384;2023-02-15T02:23:07;101479.00;;;4.00
24639;BMP180;1641;51.306;12.384;2023-02-15T02:25:59;101490.00;;;4.00
24639;BMP180;1641;51.306;12.384;2023-02-15T02:34:16;101447.00;;;3.60
24639;BMP180;1641;51.306;12.384;2023-02-15T02:36:56;101479.00;;;3.40
24639;BMP180;1641;51.306;12.384;2023-02-15T02:42:39;101480.00;;;3.20
24639;BMP180;1641;51.306;12.384;2023-02-15T02:45:08;101471.00;;;3.10
24639;BMP180;1641;51.306;12.384;2023-02-15T02:47:46;101483.00;;;3.40
24639;BMP180;1641;51.306;12.384;2023-02-15T02:50:21;101458.00;;;3.60
24639;BMP180;1641;51.306;12.384;2023-02-15T02:53:02;101469.00;;;3.70
24639;BMP180;1641;51.306;12.384;2023-02-15T03:00:34;101463.00;;;3.10
24639;BMP180;1641;51.306;12.384;2023-02-15T03:03:15;101444.00;;;3.10
24639;BMP180;1641;51.306;12.384;2023-02-15T03:05:45;101458.00;;;3.20
24639;BMP180;1641;51.306;12.384;2023-02-15T03:08:14;101458.00;;;3.30
24639;BMP180;1641;51.306;12.384;2023-02-15T03:11:05;101420.00;;;3.40
24639;BMP180;1641;51.306;12.384;2023-02-15T03:13:31;101445.00;;;3.40
24639;BMP180;1641;51.306;12.384;2023-02-15T03:16:05;101439.00;;;3.40
24639;BMP180;1641;51.306;12.384;2023-02-15T03:22:03;101437.00;;;3.10
24639;BMP180;1641;51.306;12.384;2023-02-15T03:28:06;101448.00;;;3.50
24639;BMP180;1641;51.306;12.384;2023-02-15T03:30:34;101441.00;;;3.30
24639;BMP180;1641;51.306;12.384;2023-02-15T03:33:05;101436.00;;;3.20
24639;BMP180;1641;51.306;12.384;2023-02-15T03:41:34;101432.00;;;3.30
24639;BMP180;1641;51.306;12.384;2023-02-15T03:44:06;101427.00;;;3.30
24639;BMP180;1641;51.306;12.384;2023-02-15T03:46:39;101426.00;;;3.40
24639;BMP180;1641;51.306;12.384;2023-02-15T03:49:10;101416.00;;;3.40
24639;BMP180;1641;51.306;12.384;2023-02-15T03:52:03;101415.00;;;3.20
24639;BMP180;1641;51.306;12.384;2023-02-15T03:54:33;101420.00;;;3.00
24639;BMP180;1641;51.306;12.384;2023-02-15T03:57:15;101412.00;;;3.30
24639;BMP180;1641;51.306;12.384;2023-02-15T04:00:00;101417.00;;;3.20
24639;BMP180;1641;51.306;12.384;2023-02-15T04:06:01;101418.00;;;3.10
24639;BMP180;1641;51.306;12.384;2023-02-15T04:08:27;101415.00;;;3.30
24639;BMP180;1641;51.306;12.384;2023-02-15T04:11:12;101414.00;;;3.30
24639;BMP180;1641;51.306;12.384;2023-02-15T04:13:38;101419.00;;;3.40
24639;BMP180;1641;51.306;12.384;2023-02-15T04:16:04;101409.00;;;3.30
24639;BMP180;1641;51.306;12.384;2023-02-15T04:21:14;101425.00;;;3.40
24639;BMP180;1641;51.306;12.384;2023-02-15T04:23:59;101421.00;;;3.30
24639;BMP180;1641;51.306;12.384;2023-02-15T04:30:01;101429.00;;;3.20
24639;BMP180;1641;51.306;12.384;2023-02-15T04:32:27;101417.00;;;3.10
24639;BMP180;1641;51.306;12.384;2023-02-15T04:35:03;101425.00;;;3.40
24639;BMP180;1641;51.306;12.384;2023-02-15T04:37:29;101415.00;;;3.30
24639;BMP180;1641;51.306;12.384;2023-02-15T04:39:55;101412.00;;;3.20
24639;BMP180;1641;51.306;12.384;2023-02-15T04:42:21;101399.00;;;3.50
24639;BMP180;1641;51.306;12.384;2023-02-15T04:45:12;101409.00;;;3.30
24639;BMP180;1641;51.306;12.384;2023-02-15T04:47:37;101403.00;;;3.30
24639;BMP180;1641;51.306;12.384;2023-02-15T04:50:03;101399.00;;;3.40
24639;BMP180;1641;51.306;12.384;2023-02-15T04:52:28;101403.00;;;3.40
24639;BMP180;1641;51.306;12.384;2023-02-15T04:54:53;101387.00;;;3.30
24639;BMP180;1641;51.306;12.384;2023-02-15T04:57:18;101395.00;;;3.40
24639;BMP180;1641;51.306;12.384;2023-02-15T04:59:44;101383.00;;;3.50
24639;BMP180;1641;51.306;12.384;2023-02-15T05:02:09;101359.00;;;3.40
24639;BMP180;1641;51.306;12.384;2023-02-15T05:04:34;101387.00;;;3.40
24639;BMP180;1641;51.306;12.384;2023-02-15T05:06:59;101383.00;;;3.50
24639;BMP180;1641;51.306;12.384;2023-02-15T05:09:25;101377.00;;;3.60
24639;BMP180;1641;51.306;12.384;2023-02-15T05:11:50;101373.00;;;3.50
24639;BMP180;1641;51.306;12.384;2023-02-15T05:14:16;101371.00;;;3.40
24639;BMP180;1641;51.306;12.384;2023-02-15T05:16:42;101362.00;;;3.40
24639;BMP180;1641;51.306;12.384;2023-02-15T05:19:08;101363.00;;;3.50
24639;BMP180;1641;51.306;12.384;2023-02-15T05:21:34;101368.00;;;3.40
24639;BMP180;1641;51.306;12.384;2023-02-15T05:24:00;101370.00;;;3.20
24639;BMP180;1641;51.306;12.384;2023-02-15T05:26:46;101375.00;;;3.20
24639;BMP180;1641;51.306;12.384;2023-02-15T05:29:56;101367.00;;;3.40
24639;BMP180;1641;51.306;12.384;2023-02-15T05:32:21;101369.00;;;3.40
24639;BMP180;1641;51.306;12.384;2023-02-15T05:34:47;101352.00;;;3.00
24639;BMP180;1641;51.306;12.384;2023-02-15T05:37:13;101369.00;;;3.20
24639;BMP180;1641;51.306;12.384;2023-02-15T05:39:39;101368.00;;;3.20
24639;BMP180;1641;51.306;12.384;2023-02-15T05:42:09;101357.00;;;3.10
24639;BMP180;1641;51.306;12.384;2023-02-15T05:44:34;101358.00;;;2.90
24639;BMP180;1641;51.306;12.384;2023-02-15T05:46:59;101359.00;;;2.90
24639;BMP180;1641;51.306;12.384;2023-02-15T05:49:43;101358.00;;;3.00
24639;BMP180;1641;51.306;12.384;2023-02-15T05:52:09;101363.00;;;3.20
24639;BMP180;1641;51.306;12.384;2023-02-15T05:54:34;101337.00;;;2.90
24639;BMP180;1641;51.306;12.384;2023-02-15T05:56:59;101301.00;;;2.80
24639;BMP180;1641;51.306;12.384;2023-02-15T05:59:24;101351.00;;;2.90
24639;BMP180;1641;51.306;12.384;2023-02-15T06:01:53;101355.00;;;2.70
24639;BMP180;1641;51.306;12.384;2023-02-15T06:04:21;101310.00;;;2.70
24639;BMP180;1641;51.306;12.384;2023-02-15T06:06:46;101357.00;;;2.70
24639;BMP180;1641;51.306;12.384;2023-02-15T06:09:12;101327.00;;;2.80
24639;BMP180;1641;51.306;12.384;2023-02-15T06:11:37;101361.00;;;3.00
24639;BMP180;1641;51.306;12.384;2023-02-15T06:14:03;101359.00;;;3.00
24639;BMP180;1641;51.306;12.384;2023-02-15T06:16:28;101365.00;;;3.00
24639;BMP180;1641;51.306;12.384;2023-02-15T06:19:05;101358.00;;;2.70
24639;BMP180;1641;51.306;12.384;2023-02-15T06:21:40;101367.00;;;2.70
24639;BMP180;1641;51.306;12.384;2023-02-15T06:24:05;101342.00;;;2.70
24639;BMP180;1641;51.306;12.384;2023-02-15T06:26:36;101321.00;;;2.80
24639;BMP180;1641;51.306;12.384;2023-02-15T06:29:02;101372.00;;;2.80
24639;BMP180;1641;51.306;12.384;2023-02-15T06:31:28;101372.00;;;2.90
24639;BMP180;1641;51.306;12.384;2023-02-15T06:33:54;101370.00;;;3.10
24639;BMP180;1641;51.306;12.384;2023-02-15T06:36:38;101355.00;;;3.10
24639;BMP180;1641;51.306;12.384;2023-02-15T06:39:03;101331.00;;;2.80
24639;BMP180;1641;51.306;12.384;2023-02-15T06:41:29;101335.00;;;2.90
24639;BMP180;1641;51.306;12.384;2023-02-15T06:43:54;101338.00;;;2.60
24639;BMP180;1641;51.306;12.384;2023-02-15T06:46:20;101363.00;;;2.90
24639;BMP180;1641;51.306;12.384;2023-02-15T06:48:45;101373.00;;;3.20
24639;BMP180;1641;51.306;12.384;2023-02-15T06:51:10;101372.00;;;3.10
24639;BMP180;1641;51.306;12.384;2023-02-15T06:53:35;101337.00;;;3.30
24639;BMP180;1641;51.306;12.384;2023-02-15T06:56:06;101331.00;;;3.10
24639;BMP180;1641;51.306;12.384;2023-02-15T06:58:34;101370.00;;;3.30
24639;BMP180;1641;51.306;12.384;2023-02-15T07:01:00;101278.00;;;3.30
24639;BMP180;1641;51.306;12.384;2023-02-15T07:03:25;101361.00;;;3.50
24639;BMP180;1641;51.306;12.384;2023-02-15T07:05:57;101368.00;;;3.40
24639;BMP180;1641;51.306;12.384;2023-02-15T07:08:25;101365.00;;;3.40
24639;BMP180;1641;51.306;12.384;2023-02-15T07:10:51;101347.00;;;3.20
24639;BMP180;1641;51.306;12.384;2023-02-15T07:13:17;101343.00;;;3.00
24639;BMP180;1641;51.306;12.384;2023-02-15T07:15:43;101360.00;;;3.10
24639;BMP180;1641;51.306;12.384;2023-02-15T07:18:08;101337.00;;;3.20
24639;BMP180;1641;51.306;12.384;2023-02-15T07:20:35;101343.00;;;3.00
24639;BMP180;1641;51.306;12.384;2023-02-15T07:23:01;101346.00;;;3.30
24639;BMP180;1641;51.306;12.384;2023-02-15T07:25:26;101356.00;;;3.40
24639;BMP180;1641;51.306;12.384;2023-02-15T07:27:59;101346.00;;;3.30
24639;BMP180;1641;51.306;12.384;2023-02-15T07:30:27;101345.00;;;3.60
24639;BMP180;1641;51.306;12.384;2023-02-15T07:32:59;101342.00;;;3.70
24639;BMP180;1641;51.306;12.384;2023-02-15T07:35:50;101351.00;;;3.50
24639;BMP180;1641;51.306;12.384;2023-02-15T07:38:16;101314.00;;;3.50
24639;BMP180;1641;51.306;12.384;2023-02-15T07:40:42;101318.00;;;3.40
24639;BMP180;1641;51.306;12.384;2023-02-15T07:43:08;101318.00;;;3.40
24639;BMP180;1641;51.306;12.384;2023-02-15T07:45:33;101325.00;;;3.50
24639;BMP180;1641;51.306;12.384;2023-02-15T07:48:00;101332.00;;;3.60
24639;BMP180;1641;51.306;12.384;2023-02-15T07:50:26;101331.00;;;3.60
24639;BMP180;1641;51.306;12.384;2023-02-15T07:52:51;101329.00;;;4.00
24639;BMP180;1641;51.306;12.384;2023-02-15T07:55:16;101326.00;;;4.80
24639;BMP180;1641;51.306;12.384;2023-02-15T07:57:44;101323.00;;;7.00
24639;BMP180;1641;51.306;12.384;2023-02-15T08:00:11;101325.00;;;8.60
24639;BMP180;1641;51.306;12.384;2023-02-15T08:02:38;101316.00;;;9.70
24639;BMP180;1641;51.306;12.384;2023-02-15T08:05:03;101311.00;;;10.70
24639;BMP180;1641;51.306;12.384;2023-02-15T08:07:28;101307.00;;;11.60
24639;BMP180;1641;51.306;12.384;2023-02-15T08:09:53;101307.00;;;11.60
24639;BMP180;1641;51.306;12.384;2023-02-15T08:12:19;101311.00;;;12.30
24639;BMP180;1641;51.306;12.384;2023-02-15T08:14:44;101310.00;;;12.90
24639;BMP180;1641;51.306;12.384;2023-02-15T08:17:09;101301.00;;;13.50
24639;BMP180;1641;51.306;12.384;2023-02-15T08:19:34;101301.00;;;13.70
24639;BMP180;1641;51.306;12.384;2023-02-15T08:22:03;101301.00;;;13.10
24639;BMP180;1641;51.306;12.384;2023-02-15T08:24:31;101297.00;;;13.50
24639;BMP180;1641;51.306;12.384;2023-02-15T08:26:57;101299.00;;;13.60
24639;BMP180;1641;51.306;12.384;2023-02-15T08:29:26;101303.00;;;13.10
24639;BMP180;1641;51.306;12.384;2023-02-15T08:31:58;101300.00;;;11.90
24639;BMP180;1641;51.306;12.384;2023-02-15T08:34:24;101301.00;;;12.30
24639;BMP180;1641;51.306;12.384;2023-02-15T08:36:50;101299.00;;;13.50
24639;BMP180;1641;51.306;12.384;2023-02-15T08:39:16;101287.00;;;14.20
24639;BMP180;1641;51.306;12.384;2023-02-15T08:41:44;101300.00;;;14.20
24639;BMP180;1641;51.306;12.384;2023-02-15T08:44:09;101281.00;;;14.00
24639;BMP180;1641;51.306;12.384;2023-02-15T08:46:37;101286.00;;;15.30
24639;BMP180;1641;51.306;12.384;2023-02-15T08:49:03;101262.00;;;15.40
24639;BMP180;1641;51.306;12.384;2023-02-15T08:51:34;101290.00;;;16.40
24639;BMP180;1641;51.306;12.384;2023-02-15T08:54:06;101283.00;;;15.60
24639;BMP180;1641;51.306;12.384;2023-02-15T08:56:34;101281.00;;;15.30
24639;BMP180;1641;51.306;12.384;2023-02-15T08:59:00;101288.00;;;14.60
24639;BMP180;1641;51.306;12.384;2023-02-15T09:01:29;101290.00;;;15.30
24639;BMP180;1641;51.306;12.384;2023-02-15T09:04:00;101282.00;;;14.80
24639;BMP180;1641;51.306;12.384;2023-02-15T09:06:27;101289.00;;;15.30
24639;BMP180;1641;51.306;12.384;2023-02-15T09:08:53;101282.00;;;15.70
24639;BMP180;1641;51.306;12.384;2023-02-15T09:11:21;101286.00;;;14.30
24639;BMP180;1641;51.306;12.384;2023-02-15T09:13:59;101287.00;;;14.30
24639;BMP180;1641;51.306;12.384;2023-02-15T09:16:27;101278.00;;;15.50
24639;BMP180;1641;51.306;12.384;2023-02-15T09:18:53;101281.00;;;16.10
24639;BMP180;1641;51.306;12.384;2023-02-15T09:21:20;101296.00;;;16.80
24639;BMP180;1641;51.306;12.384;2023-02-15T09:23:48;101286.00;;;16.20
24639;BMP180;1641;51.306;12.384;2023-02-15T09:26:17;101282.00;;;16.20
24639;BMP180;1641;51.306;12.384;2023-02-15T09:28:42;101278.00;;;16.50
24639;BMP180;1641;51.306;12.384;2023-02-15T09:33:38;101265.00;;;15.40
24639;BMP180;1641;51.306;12.384;2023-02-15T09:36:05;101280.00;;;16.00
24639;BMP180;1641;51.306;12.384;2023-02-15T09:38:31;101290.00;;;16.10
24639;BMP180;1641;51.306;12.384;2023-02-15T09:41:13;101280.00;;;17.70
24639;BMP180;1641;51.306;12.384;2023-02-15T09:43:50;101272.00;;;18.80
24639;BMP180;1641;51.306;12.384;2023-02-15T09:49:32;101292.00;;;16.10
24639;BMP180;1641;51.306;12.384;2023-02-15T09:52:10;101298.00;;;14.00
24639;BMP180;1641;51.306;12.384;2023-02-15T09:55:03;101300.00;;;11.90
24639;BMP180;1641;51.306;12.384;2023-02-15T09:57:39;101300.00;;;10.70
24639;BMP180;1641;51.306;12.384;2023-02-15T10:00:24;101276.00;;;9.90
24639;BMP180;1641;51.306;12.384;2023-02-15T10:08:25;101296.00;;;9.00
24639;BMP180;1641;51.306;12.384;2023-02-15T10:11:11;101294.00;;;8.90
24639;BMP180;1641;51.306;12.384;2023-02-15T10:14:08;101273.00;;;9.10
24639;BMP180;1641;51.306;12.384;2023-02-15T10:16:49;101290.00;;;8.50
24639;BMP180;1641;51.306;12.384;2023-02-15T10:22:21;101289.00;;;9.00
24639;BMP180;1641;51.306;12.384;2023-02-15T10:25:01;101290.00;;;8.40
24639;BMP180;1641;51.306;12.384;2023-02-15T10:27:44;101283.00;;;8.60
24639;BMP180;1641;51.306;12.384;2023-02-15T10:30:13;101283.00;;;9.20
24639;BMP180;1641;51.306;12.384;2023-02-15T10:32:53;101275.00;;;9.20
24639;BMP180;1641;51.306;12.384;2023-02-15T10:40:28;101275.00;;;8.80
24639;BMP180;1641;51.306;12.384;2023-02-15T10:43:12;101268.00;;;8.80
24639;BMP180;1641;51.306;12.384;2023-02-15T10:45:58;101270.00;;;8.80
24639;BMP180;1641;51.306;12.384;2023-02-15T10:48:45;101257.00;;;8.50
24639;BMP180;1641;51.306;12.384;2023-02-15T10:51:26;101260.00;;;8.80
24639;BMP180;1641;51.306;12.384;2023-02-15T10:56:50;101244.00;;;8.60
24639;BMP180;1641;51.306;12.384;2023-02-15T11:02:21;101228.00;;;9.60
24639;BMP180;1641;51.306;12.384;2023-02-15T11:05:14;101230.00;;;9.80
24639;BMP180;1641;51.306;12.384;2023-02-15T11:07:52;101209.00;;;9.90
24639;BMP180;1641;51.306;12.384;2023-02-15T11:10:30;101242.00;;;10.10
24639;BMP180;1641;51.306;12.384;2023-02-15T11:12:58;101234.00;;;9.90
24639;BMP180;1641;51.306;12.384;2023-02-15T11:15:36;101231.00;;;9.60
24639;BMP180;1641;51.306;12.384;2023-02-15T11:18:19;101227.00;;;9.80
24639;BMP180;1641;51.306;12.384;2023-02-15T11:21:08;101229.00;;;10.40
24639;BMP180;1641;51.306;12.384;2023-02-15T11:23:37;101221.00;;;9.90
24639;BMP180;1641;51.306;12.384;2023-02-15T11:26:10;101197.00;;;10.00
24639;BMP180;1641;51.306;12.384;2023-02-15T11:28:43;101228.00;;;10.10
24639;BMP180;1641;51.306;12.384;2023-02-15T11:31:16;101221.00;;;9.80
24639;BMP180;1641;51.306;12.384;2023-02-15T11:33:46;101211.00;;;10.10
24639;BMP180;1641;51.306;12.384;2023-02-15T11:36:19;101228.00;;;10.50
24639;BMP180;1641;51.306;12.384;2023-02-15T11:38:52;101216.00;;;10.10
24639;BMP180;1641;51.306;12.384;2023-02-15T11:41:26;101224.00;;;10.20
24639;BMP180;1641;51.306;12.384;2023-02-15T11:44:31;101206.00;;;10.00
24639;BMP180;1641;51.306;12.384;2023-02-15T11:46:58;101209.00;;;10.30
24639;BMP180;1641;51.306;12.384;2023-02-15T11:53:04;101172.00;;;10.80
24639;BMP180;1641;51.306;12.384;2023-02-15T11:55:53;101191.00;;;10.90
24639;BMP180;1641;51.306;12.384;2023-02-15T11:58:39;101185.00;;;10.90
24639;BMP180;1641;51.306;12.384;2023-02-15T12:01:27;101184.00;;;11.00
24639;BMP180;1641;51.306;12.384;2023-02-15T12:04:16;101194.00;;;10.70
24639;BMP180;1641;51.306;12.384;2023-02-15T12:07:04;101183.00;;;11.10
24639;BMP180;1641;51.306;12.384;2023-02-15T12:09:46;101180.00;;;11.40
24639;BMP180;1641;51.306;12.384;2023-02-15T12:12:30;101176.00;;;10.60
24639;BMP180;1641;51.306;12.384;2023-02-15T12:15:05;101183.00;;;11.00
24639;BMP180;1641;51.306;12.384;2023-02-15T12:17:39;101165.00;;;11.50
24639;BMP180;1641;51.306;12.384;2023-02-15T12:23:28;101162.00;;;11.40
24639;BMP180;1641;51.306;12.384;2023-02-15T12:25:55;101173.00;;;11.80
24639;BMP180;1641;51.306;12.384;2023-02-15T12:28:44;101144.00;;;11.60
24639;BMP180;1641;51.306;12.384;2023-02-15T12:31:27;101143.00;;;11.80
24639;BMP180;1641;51.306;12.384;2023-02-15T12:34:46;101153.00;;;11.90
24639;BMP180;1641;51.306;12.384;2023-02-15T12:37:27;101146.00;;;12.00
24639;BMP180;1641;51.306;12.384;2023-02-15T12:39:55;101134.00;;;12.10
24639;BMP180;1641;51.306;12.384;2023-02-15T12:42:21;101164.00;;;12.10
24639;BMP180;1641;51.306;12.384;2023-02-15T12:47:25;101166.00;;;12.50
24639;BMP180;1641;51.306;12.384;2023-02-15T12:53:21;101153.00;;;12.30
24639;BMP180;1641;51.306;12.384;2023-02-15T12:56:09;101080.00;;;12.60
24639;BMP180;1641;51.306;12.384;2023-02-15T12:58:37;101145.00;;;12.70
24639;BMP180;1641;51.306;12.384;2023-02-15T13:04:05;101140.00;;;12.60
24639;BMP180;1641;51.306;12.384;2023-02-15T13:06:33;101138.00;;;12.70
24639;BMP180;1641;51.306;12.384;2023-02-15T13:09:15;101127.00;;;12.90
24639;BMP180;1641;51.306;12.384;2023-02-15T13:11:44;101125.00;;;12.40
24639;BMP180;1641;51.306;12.384;2023-02-15T13:14:19;101130.00;;;12.80
24639;BMP180;1641;51.306;12.384;2023-02-15T13:17:04;101129.00;;;13.00
24639;BMP180;1641;51.306;12.384;2023-02-15T13:19:41;101127.00;;;12.90
24639;BMP180;1641;51.306;12.384;2023-02-15T13:22:13;101103.00;;;13.30
24639;BMP180;1641;51.306;12.384;2023-02-15T13:24:41;101118.00;;;13.20
24639;BMP180;1641;51.306;12.384;2023-02-15T13:27:13;101110.00;;;13.40
24639;BMP180;1641;51.306;12.384;2023-02-15T13:30:03;101112.00;;;13.10
24639;BMP180;1641;51.306;12.384;2023-02-15T13:32:32;101111.00;;;13.10
24639;BMP180;1641;51.306;12.384;2023-02-15T13:35:00;101102.00;;;13.00
24639;BMP180;1641;51.306;12.384;2023-02-15T13:40:25;101101.00;;;13.10
24639;BMP180;1641;51.306;12.384;2023-02-15T13:43:25;101099.00;;;13.30
24639;BMP180;1641;51.306;12.384;2023-02-15T13:54:49;101102.00;;;13.60
24639;BMP180;1641;51.306;12.384;2023-02-15T13:57:41;101101.00;;;13.20
24639;BMP180;1641;51.306;12.384;2023-02-15T14:00:21;101099.00;;;13.20
24639;BMP180;1641;51.306;12.384;2023-02-15T14:08:36;101104.00;;;13.50
24639;BMP180;1641;51.306;12.384;2023-02-15T14:19:25;101089.00;;;13.50
24639;BMP180;1641;51.306;12.384;2023-02-15T14:21:59;101096.00;;;13.80
24639;BMP180;1641;51.306;12.384;2023-02-15T14:24:40;101075.00;;;13.90
24639;BMP180;1641;51.306;12.384;2023-02-15T14:27:29;101085.00;;;14.20
24639;BMP180;1641;51.306;12.384;2023-02-15T14:29:59;101077.00;;;14.20
24639;BMP180;1641;51.306;12.384;2023-02-15T14:32:37;101065.00;;;14.00
24639;BMP180;1641;51.306;12.384;2023-02-15T14:35:09;101066.00;;;13.80
24639;BMP180;1641;51.306;12.384;2023-02-15T14:37:52;101076.00;;;14.00
24639;BMP180;1641;51.306;12.384;2023-02-15T14:40:47;101077.00;;;14.10
24639;BMP180;1641;51.306;12.384;2023-02-15T14:46:24;101078.00;;;13.90
24639;BMP180;1641;51.306;12.384;2023-02-15T14:48:53;101065.00;;;14.00
24639;BMP180;1641;51.306;12.384;2023-02-15T14:54:03;101074.00;;;14.40
24639;BMP180;1641;51.306;12.384;2023-02-15T14:56:28;101078.00;;;14.40
24639;BMP180;1641;51.306;12.384;2023-02-15T14:58:56;101075.00;;;14.30
24639;BMP180;1641;51.306;12.384;2023-02-15T15:01:30;101082.00;;;14.10
24639;BMP180;1641;51.306;12.384;2023-02-15T15:04:01;101075.00;;;14.30
24639;BMP180;1641;51.306;12.384;2023-02-15T15:06:30;101075.00;;;14.00
24639;BMP180;1641;51.306;12.384;2023-02-15T15:09:05;101067.00;;;14.10
24639;BMP180;1641;51.306;12.384;2023-02-15T15:11:42;101056.00;;;13.70
24639;BMP180;1641;51.306;12.384;2023-02-15T15:14:07;100993.00;;;13.60
24639;BMP180;1641;51.306;12.384;2023-02-15T15:19:09;101055.00;;;14.00
24639;BMP180;1641;51.306;12.384;2023-02-15T15:27:41;101046.00;;;14.10
24639;BMP180;1641;51.306;12.384;2023-02-15T15:35:36;101012.00;;;14.20
24639;BMP180;1641;51.306;12.384;2023-02-15T15:49:58;101027.00;;;13.80
24639;BMP180;1641;51.306;12.384;2023-02-15T15:52:26;101034.00;;;13.90
24639;BMP180;1641;51.306;12.384;2023-02-15T15:54:56;101044.00;;;13.50
24639;BMP180;1641;51.306;12.384;2023-02-15T15:57:27;101036.00;;;13.50
24639;BMP180;1641;51.306;12.384;2023-02-15T15:59:53;101029.00;;;13.60
24639;BMP180;1641;51.306;12.384;2023-02-15T16:02:19;101027.00;;;13.70
24639;BMP180;1641;51.306;12.384;2023-02-15T16:04:45;101012.00;;;13.40
24639;BMP180;1641;51.306;12.384;2023-02-15T16:10:07;101027.00;;;13.50
24639;BMP180;1641;51.306;12.384;2023-02-15T16:12:46;100999.00;;;13.20
24639;BMP180;1641;51.306;12.384;2023-02-15T16:15:18;101000.00;;;13.20
24639;BMP180;1641;51.306;12.384;2023-02-15T16:17:44;101013.00;;;13.10
24639;BMP180;1641;51.306;12.384;2023-02-15T16:20:20;101025.00;;;12.60
24639;BMP180;1641;51.306;12.384;2023-02-15T16:22:48;101009.00;;;12.50
24639;BMP180;1641;51.306;12.384;2023-02-15T16:25:31;101020.00;;;12.80
24639;BMP180;1641;51.306;12.384;2023-02-15T16:28:12;101018.00;;;12.40
24639;BMP180;1641;51.306;12.384;2023-02-15T16:30:39;101026.00;;;12.10
24639;BMP180;1641;51.306;12.384;2023-02-15T16:33:13;101024.00;;;12.40
24639;BMP180;1641;51.306;12.384;2023-02-15T16:35:57;101028.00;;;12.50
24639;BMP180;1641;51.306;12.384;2023-02-15T16:41:11;101030.00;;;12.40
24639;BMP180;1641;51.306;12.384;2023-02-15T16:43:39;101024.00;;;12.30
24639;BMP180;1641;51.306;12.384;2023-02-15T16:46:28;101018.00;;;12.00
24639;BMP180;1641;51.306;12.384;2023-02-15T16:48:57;101023.00;;;11.60
24639;BMP180;1641;51.306;12.384;2023-02-15T16:51:29;101000.00;;;11.80